createdAt,value
2018-09-09T00:00:59.174Z,0.00
2018-09-09T00:01:58.593Z,0.00
2018-09-09T00:02:58.606Z,0.00
2018-09-09T00:03:58.587Z,0.00
2018-09-09T00:04:58.598Z,0.00
2018-09-09T00:05:58.612Z,0.00
2018-09-09T00:06:58.608Z,0.00
2018-09-09T00:07:58.632Z,0.00
2018-09-09T00:08:58.619Z,0.00
2018-09-09T00:09:58.594Z,0.00
2018-09-09T00:10:58.606Z,0.00
2018-09-09T00:11:58.615Z,0.00
2018-09-09T00:12:58.611Z,0.00
2018-09-09T00:13:58.621Z,0.00
2018-09-09T00:14:58.616Z,0.00
2018-09-09T00:15:59.182Z,0.00
2018-09-09T00:16:58.633Z,0.00
2018-09-09T00:17:58.624Z,0.00
2018-09-09T00:18:58.620Z,0.00
2018-09-09T00:19:58.675Z,0.00
2018-09-09T00:20:58.649Z,0.00
2018-09-09T00:21:58.657Z,0.00
2018-09-09T00:22:58.639Z,0.00
2018-09-09T00:23:58.671Z,0.00
2018-09-09T00:24:58.653Z,0.00
2018-09-09T00:25:58.651Z,0.00
2018-09-09T00:26:58.660Z,0.00
2018-09-09T00:27:58.644Z,0.00
2018-09-09T00:28:59.189Z,0.00
2018-09-09T00:29:58.671Z,0.00
2018-09-09T00:30:58.661Z,0.00
2018-09-09T00:31:58.651Z,0.00
2018-09-09T00:32:58.672Z,0.00
2018-09-09T00:33:58.686Z,0.00
2018-09-09T00:34:58.668Z,0.00
2018-09-09T00:35:58.666Z,0.00
2018-09-09T00:36:58.706Z,0.00
2018-09-09T00:37:58.670Z,0.00
2018-09-09T00:38:58.709Z,0.00
2018-09-09T00:39:58.695Z,0.00
2018-09-09T00:40:58.705Z,0.00
2018-09-09T00:41:59.689Z,0.00
2018-09-09T00:42:58.666Z,0.00
2018-09-09T00:43:58.753Z,0.00
2018-09-09T00:44:58.741Z,0.00
2018-09-09T00:45:58.733Z,0.00
2018-09-09T00:46:58.691Z,0.00
2018-09-09T00:47:58.695Z,0.00
2018-09-09T00:48:58.753Z,0.00
2018-09-09T00:49:58.692Z,0.00
2018-09-09T00:50:58.785Z,0.00
2018-09-09T00:51:58.721Z,0.00
2018-09-09T00:52:58.746Z,0.00
2018-09-09T00:53:58.701Z,0.00
2018-09-09T00:54:58.806Z,0.00
2018-09-09T00:55:58.741Z,0.00
2018-09-09T00:56:58.737Z,0.00
2018-09-09T00:57:58.776Z,0.00
2018-09-09T00:58:58.733Z,0.00
2018-09-09T00:59:58.735Z,0.00
2018-09-09T01:00:58.734Z,0.00
2018-09-09T01:01:58.762Z,0.00
2018-09-09T01:02:58.721Z,0.00
2018-09-09T01:03:58.751Z,0.00
2018-09-09T01:04:58.751Z,0.00
2018-09-09T01:05:58.890Z,0.00
2018-09-09T01:06:58.719Z,0.00
2018-09-09T01:07:58.756Z,0.00
2018-09-09T01:08:58.759Z,0.00
2018-09-09T01:09:58.718Z,0.00
2018-09-09T01:10:58.733Z,0.00
2018-09-09T01:11:58.735Z,0.00
2018-09-09T01:12:58.838Z,0.00
2018-09-09T01:13:58.742Z,0.00
2018-09-09T01:14:58.792Z,0.00
2018-09-09T01:15:58.754Z,0.00
2018-09-09T01:16:58.762Z,0.00
2018-09-09T01:17:58.749Z,0.00
2018-09-09T01:18:58.766Z,0.00
2018-09-09T01:19:58.779Z,0.00
2018-09-09T01:20:58.833Z,0.00
2018-09-09T01:21:58.805Z,0.00
2018-09-09T01:22:58.840Z,0.00
2018-09-09T01:23:58.798Z,0.00
2018-09-09T01:24:58.770Z,0.00
2018-09-09T01:25:58.777Z,0.00
2018-09-09T01:26:58.786Z,0.00
2018-09-09T01:27:58.787Z,0.00
2018-09-09T01:28:58.773Z,0.00
2018-09-09T01:29:58.810Z,0.00
2018-09-09T01:30:58.806Z,0.00
2018-09-09T01:31:58.836Z,0.00
2018-09-09T01:32:58.808Z,0.00
2018-09-09T01:33:58.830Z,0.00
2018-09-09T01:34:58.852Z,0.00
2018-09-09T01:35:58.791Z,0.00
2018-09-09T01:36:58.794Z,0.00
2018-09-09T01:37:58.813Z,0.00
2018-09-09T01:38:58.801Z,0.00
2018-09-09T01:39:58.799Z,0.00
2018-09-09T01:40:58.821Z,0.00
2018-09-09T01:41:58.798Z,0.00
2018-09-09T01:42:58.813Z,0.00
2018-09-09T01:43:58.810Z,0.00
2018-09-09T01:44:58.820Z,0.00
2018-09-09T01:45:58.814Z,0.00
2018-09-09T01:46:58.839Z,0.00
2018-09-09T01:47:58.850Z,0.00
2018-09-09T01:48:58.908Z,0.00
2018-09-09T01:49:58.846Z,0.00
2018-09-09T01:50:58.842Z,0.00
2018-09-09T01:51:58.868Z,0.00
2018-09-09T01:52:58.828Z,0.00
2018-09-09T01:53:58.828Z,0.00
2018-09-09T01:54:59.711Z,0.00
2018-09-09T01:55:58.866Z,0.00
2018-09-09T01:56:58.859Z,0.00
2018-09-09T01:57:58.863Z,0.00
2018-09-09T01:58:58.856Z,0.00
2018-09-09T01:59:58.851Z,0.00
2018-09-09T02:00:58.888Z,0.00
2018-09-09T02:01:58.846Z,0.00
2018-09-09T02:02:58.865Z,0.00
2018-09-09T02:03:58.847Z,0.00
2018-09-09T02:04:58.902Z,0.00
2018-09-09T02:05:58.856Z,0.00
2018-09-09T02:06:58.861Z,0.00
2018-09-09T02:07:58.865Z,0.00
2018-09-09T02:08:58.880Z,0.00
2018-09-09T02:09:58.911Z,0.00
2018-09-09T02:10:58.885Z,0.00
2018-09-09T02:11:58.855Z,0.00
2018-09-09T02:12:58.887Z,0.00
2018-09-09T02:13:58.874Z,0.00
2018-09-09T02:14:58.913Z,0.00
2018-09-09T02:15:58.873Z,0.00
2018-09-09T02:16:58.911Z,0.00
2018-09-09T02:17:58.897Z,0.00
2018-09-09T02:18:58.894Z,0.00
2018-09-09T02:19:58.913Z,0.00
2018-09-09T02:20:58.907Z,0.00
2018-09-09T02:21:58.922Z,0.00
2018-09-09T02:22:58.886Z,0.00
2018-09-09T02:23:58.910Z,0.00
2018-09-09T02:24:58.897Z,0.00
2018-09-09T02:25:58.970Z,0.00
2018-09-09T02:26:58.901Z,0.00
2018-09-09T02:27:58.924Z,0.00
2018-09-09T02:28:58.927Z,0.00
2018-09-09T02:29:59.001Z,0.00
2018-09-09T02:30:58.914Z,0.00
2018-09-09T02:31:58.909Z,0.00
2018-09-09T02:32:58.911Z,0.00
2018-09-09T02:33:58.909Z,0.00
2018-09-09T02:34:58.921Z,0.00
2018-09-09T02:35:58.916Z,0.00
2018-09-09T02:36:58.927Z,0.00
2018-09-09T02:37:58.928Z,0.00
2018-09-09T02:38:58.924Z,0.00
2018-09-09T02:39:58.929Z,0.00
2018-09-09T02:40:58.969Z,0.00
2018-09-09T02:41:58.984Z,0.00
2018-09-09T02:42:58.971Z,0.00
2018-09-09T02:43:58.976Z,0.00
2018-09-09T02:44:58.958Z,0.00
2018-09-09T02:45:58.944Z,0.00
2018-09-09T02:46:58.949Z,0.00
2018-09-09T02:47:58.999Z,0.00
2018-09-09T02:48:58.967Z,0.00
2018-09-09T02:49:58.942Z,0.00
2018-09-09T02:50:58.956Z,0.00
2018-09-09T02:51:58.963Z,0.00
2018-09-09T02:52:58.959Z,0.00
2018-09-09T02:53:58.973Z,0.00
2018-09-09T02:55:01.821Z,0.00
2018-09-09T02:55:58.968Z,0.00
2018-09-09T02:56:58.970Z,0.00
2018-09-09T02:57:58.979Z,0.00
2018-09-09T02:58:58.983Z,0.00
2018-09-09T02:59:59.020Z,0.00
2018-09-09T03:00:58.996Z,0.00
2018-09-09T03:01:58.992Z,0.00
2018-09-09T03:02:59.016Z,0.00
2018-09-09T03:03:59.023Z,0.00
2018-09-09T03:04:59.000Z,0.00
2018-09-09T03:05:58.980Z,0.00
2018-09-09T03:06:59.017Z,0.00
2018-09-09T03:07:59.012Z,0.00
2018-09-09T03:08:58.980Z,0.00
2018-09-09T03:09:59.030Z,0.00
2018-09-09T03:10:59.737Z,0.00
2018-09-09T03:11:58.991Z,0.00
2018-09-09T03:12:58.994Z,0.00
2018-09-09T03:13:59.012Z,0.00
2018-09-09T03:14:58.999Z,0.00
2018-09-09T03:15:59.003Z,0.00
2018-09-09T03:16:59.035Z,0.00
2018-09-09T03:17:59.004Z,0.00
2018-09-09T03:18:59.032Z,0.00
2018-09-09T03:19:59.094Z,0.00
2018-09-09T03:20:59.036Z,0.00
2018-09-09T03:21:59.155Z,0.00
2018-09-09T03:22:59.040Z,0.00
2018-09-09T03:23:59.046Z,0.00
2018-09-09T03:24:59.034Z,0.00
2018-09-09T03:25:59.033Z,0.00
2018-09-09T03:26:59.040Z,0.00
2018-09-09T03:27:59.039Z,0.00
2018-09-09T03:28:59.076Z,0.00
2018-09-09T03:29:59.017Z,0.00
2018-09-09T03:30:59.131Z,0.00
2018-09-09T03:31:59.045Z,0.00
2018-09-09T03:32:59.070Z,0.00
2018-09-09T03:33:59.084Z,0.00
2018-09-09T03:34:59.060Z,0.00
2018-09-09T03:35:59.051Z,0.00
2018-09-09T03:36:59.065Z,0.00
2018-09-09T03:37:59.058Z,0.00
2018-09-09T03:38:59.058Z,0.00
2018-09-09T03:39:59.063Z,0.00
2018-09-09T03:40:59.101Z,0.00
2018-09-09T03:41:59.160Z,0.00
2018-09-09T03:42:59.079Z,0.00
2018-09-09T03:43:59.104Z,0.00
2018-09-09T03:44:59.113Z,0.00
2018-09-09T03:45:59.075Z,0.00
2018-09-09T03:46:59.104Z,0.00
2018-09-09T03:47:59.116Z,0.00
2018-09-09T03:48:59.122Z,0.00
2018-09-09T03:49:59.065Z,0.00
2018-09-09T03:50:59.083Z,0.00
2018-09-09T03:51:59.106Z,0.00
2018-09-09T03:52:59.137Z,0.00
2018-09-09T03:53:59.080Z,0.00
2018-09-09T03:54:59.101Z,0.00
2018-09-09T03:55:59.115Z,0.00
2018-09-09T03:56:59.089Z,0.00
2018-09-09T03:57:59.134Z,0.00
2018-09-09T03:58:59.190Z,0.00
2018-09-09T03:59:59.108Z,0.00
2018-09-09T04:00:59.190Z,0.00
2018-09-09T04:01:59.137Z,0.00
2018-09-09T04:02:59.118Z,0.00
2018-09-09T04:03:59.132Z,0.00
2018-09-09T04:04:59.117Z,0.00
2018-09-09T04:05:59.143Z,0.00
2018-09-09T04:06:59.162Z,0.00
2018-09-09T04:07:59.189Z,0.00
2018-09-09T04:08:59.170Z,0.00
2018-09-09T04:09:59.197Z,0.00
2018-09-09T04:10:59.162Z,0.00
2018-09-09T04:11:59.118Z,0.00
2018-09-09T04:12:59.117Z,0.00
2018-09-09T04:13:59.116Z,0.00
2018-09-09T04:14:59.124Z,0.00
2018-09-09T04:15:59.204Z,0.00
2018-09-09T04:16:59.128Z,0.00
2018-09-09T04:17:59.766Z,0.00
2018-09-09T04:18:59.140Z,0.00
2018-09-09T04:19:59.145Z,0.00
2018-09-09T04:20:59.160Z,0.00
2018-09-09T04:21:59.162Z,0.00
2018-09-09T04:22:59.167Z,0.00
2018-09-09T04:23:59.157Z,0.00
2018-09-09T04:24:59.158Z,0.00
2018-09-09T04:25:59.148Z,0.00
2018-09-09T04:26:59.210Z,0.00
2018-09-09T04:27:59.163Z,0.00
2018-09-09T04:28:59.174Z,0.00
2018-09-09T04:29:59.184Z,0.00
2018-09-09T04:30:59.276Z,0.00
2018-09-09T04:31:59.206Z,0.00
2018-09-09T04:32:59.162Z,0.00
2018-09-09T04:33:59.170Z,0.00
2018-09-09T04:34:59.177Z,0.00
2018-09-09T04:35:59.157Z,0.00
2018-09-09T04:36:59.172Z,0.00
2018-09-09T04:37:59.174Z,0.00
2018-09-09T04:38:59.168Z,0.00
2018-09-09T04:39:59.190Z,0.00
2018-09-09T04:40:59.173Z,0.00
2018-09-09T04:41:59.250Z,0.00
2018-09-09T04:42:59.217Z,0.00
2018-09-09T04:43:59.215Z,0.00
2018-09-09T04:44:59.218Z,0.00
2018-09-09T04:45:59.203Z,0.00
2018-09-09T04:46:59.207Z,0.00
2018-09-09T04:47:59.215Z,0.00
2018-09-09T04:48:59.247Z,0.00
2018-09-09T04:49:59.226Z,0.00
2018-09-09T04:50:59.215Z,0.00
2018-09-09T04:51:59.254Z,0.00
2018-09-09T04:52:59.202Z,0.00
2018-09-09T04:53:59.241Z,0.00
2018-09-09T04:54:59.214Z,0.00
2018-09-09T04:55:59.208Z,5.63
2018-09-09T04:56:59.217Z,5.63
2018-09-09T04:57:59.213Z,5.63
2018-09-09T04:58:59.222Z,5.63
2018-09-09T04:59:59.238Z,5.63
2018-09-09T05:00:59.222Z,5.63
2018-09-09T05:01:59.217Z,5.63
2018-09-09T05:02:59.229Z,5.63
2018-09-09T05:03:59.226Z,5.63
2018-09-09T05:04:59.243Z,5.63
2018-09-09T05:05:59.239Z,5.63
2018-09-09T05:06:59.220Z,5.63
2018-09-09T05:07:59.250Z,11.25
2018-09-09T05:08:59.229Z,11.25
2018-09-09T05:09:59.239Z,11.25
2018-09-09T05:10:59.249Z,11.25
2018-09-09T05:11:59.331Z,11.25
2018-09-09T05:12:59.234Z,16.88
2018-09-09T05:13:59.234Z,16.88
2018-09-09T05:14:59.269Z,16.88
2018-09-09T05:15:59.246Z,16.88
2018-09-09T05:16:59.245Z,16.88
2018-09-09T05:17:59.251Z,16.88
2018-09-09T05:18:59.267Z,22.50
2018-09-09T05:19:59.259Z,22.50
2018-09-09T05:20:59.269Z,16.88
2018-09-09T05:21:59.263Z,16.88
2018-09-09T05:22:59.280Z,16.88
2018-09-09T05:23:59.280Z,16.88
2018-09-09T05:24:59.276Z,16.88
2018-09-09T05:25:59.278Z,16.88
2018-09-09T05:26:59.295Z,16.88
2018-09-09T05:27:59.298Z,16.88
2018-09-09T05:28:59.285Z,16.88
2018-09-09T05:29:59.787Z,16.88
2018-09-09T05:30:59.333Z,16.88
2018-09-09T05:31:59.472Z,16.88
2018-09-09T05:32:59.329Z,16.88
2018-09-09T05:33:59.294Z,16.88
2018-09-09T05:34:59.306Z,16.88
2018-09-09T05:35:59.342Z,16.88
2018-09-09T05:36:59.296Z,22.50
2018-09-09T05:37:59.302Z,22.50
2018-09-09T05:38:59.318Z,22.50
2018-09-09T05:39:59.305Z,28.13
2018-09-09T05:40:59.337Z,28.13
2018-09-09T05:41:59.355Z,28.13
2018-09-09T05:42:59.314Z,28.13
2018-09-09T05:43:59.329Z,28.13
2018-09-09T05:44:59.344Z,33.75
2018-09-09T05:45:59.323Z,33.75
2018-09-09T05:46:59.354Z,39.38
2018-09-09T05:47:59.336Z,45.00
2018-09-09T05:48:59.352Z,45.00
2018-09-09T05:49:59.378Z,50.63
2018-09-09T05:50:59.340Z,45.00
2018-09-09T05:51:59.328Z,50.63
2018-09-09T05:52:59.321Z,50.63
2018-09-09T05:53:59.377Z,50.63
2018-09-09T05:54:59.334Z,56.25
2018-09-09T05:55:59.326Z,56.25
2018-09-09T05:56:59.347Z,56.25
2018-09-09T05:57:59.338Z,56.25
2018-09-09T05:58:59.331Z,56.25
2018-09-09T05:59:59.344Z,56.25
2018-09-09T06:00:59.338Z,56.25
2018-09-09T06:01:59.346Z,56.25
2018-09-09T06:02:59.339Z,56.25
2018-09-09T06:03:59.349Z,61.88
2018-09-09T06:04:59.349Z,61.88
2018-09-09T06:05:59.342Z,73.13
2018-09-09T06:06:59.419Z,78.75
2018-09-09T06:07:59.352Z,84.38
2018-09-09T06:08:59.401Z,90.00
2018-09-09T06:09:59.356Z,95.63
2018-09-09T06:10:59.388Z,101.25
2018-09-09T06:11:59.363Z,112.50
2018-09-09T06:12:59.394Z,118.13
2018-09-09T06:13:59.388Z,123.75
2018-09-09T06:14:59.363Z,123.75
2018-09-09T06:15:59.388Z,123.75
2018-09-09T06:16:59.393Z,123.75
2018-09-09T06:17:59.410Z,135.00
2018-09-09T06:18:59.386Z,129.38
2018-09-09T06:19:59.424Z,129.38
2018-09-09T06:20:59.433Z,135.00
2018-09-09T06:21:59.414Z,135.00
2018-09-09T06:22:59.412Z,129.38
2018-09-09T06:24:00.313Z,129.38
2018-09-09T06:24:59.396Z,135.00
2018-09-09T06:25:59.428Z,135.00
2018-09-09T06:26:59.409Z,135.00
2018-09-09T06:27:59.402Z,129.38
2018-09-09T06:28:59.422Z,129.38
2018-09-09T06:29:59.431Z,135.00
2018-09-09T06:30:59.414Z,146.25
2018-09-09T06:31:59.405Z,146.25
2018-09-09T06:32:59.430Z,151.88
2018-09-09T06:33:59.470Z,157.50
2018-09-09T06:34:59.420Z,157.50
2018-09-09T06:35:59.428Z,157.50
2018-09-09T06:36:59.709Z,157.50
2018-09-09T06:37:59.440Z,151.88
2018-09-09T06:38:59.448Z,151.88
2018-09-09T06:39:59.464Z,157.50
2018-09-09T06:41:00.323Z,157.50
2018-09-09T06:41:59.459Z,157.50
2018-09-09T06:42:59.460Z,163.13
2018-09-09T06:43:59.474Z,174.38
2018-09-09T06:44:59.454Z,174.38
2018-09-09T06:45:59.448Z,185.63
2018-09-09T06:46:59.448Z,185.63
2018-09-09T06:47:59.501Z,191.25
2018-09-09T06:48:59.463Z,219.38
2018-09-09T06:49:59.581Z,253.13
2018-09-09T06:50:59.465Z,309.38
2018-09-09T06:51:59.476Z,247.50
2018-09-09T06:52:59.472Z,236.25
2018-09-09T06:53:59.458Z,292.50
2018-09-09T06:54:59.497Z,410.63
2018-09-09T06:55:59.491Z,376.88
2018-09-09T06:56:59.501Z,270.00
2018-09-09T06:57:59.486Z,292.50
2018-09-09T06:58:59.475Z,393.75
2018-09-09T06:59:59.466Z,438.75
2018-09-09T07:00:59.486Z,433.13
2018-09-09T07:01:59.484Z,281.25
2018-09-09T07:02:59.488Z,275.63
2018-09-09T07:03:59.494Z,281.25
2018-09-09T07:04:59.544Z,343.13
2018-09-09T07:05:59.495Z,427.50
2018-09-09T07:06:59.498Z,455.63
2018-09-09T07:07:59.508Z,393.75
2018-09-09T07:08:59.528Z,393.75
2018-09-09T07:09:59.536Z,534.38
2018-09-09T07:10:59.640Z,455.63
2018-09-09T07:11:59.593Z,455.63
2018-09-09T07:12:59.534Z,438.75
2018-09-09T07:13:59.499Z,410.63
2018-09-09T07:14:59.521Z,360.00
2018-09-09T07:15:59.511Z,348.75
2018-09-09T07:16:59.623Z,343.13
2018-09-09T07:17:59.511Z,360.00
2018-09-09T07:18:59.545Z,376.88
2018-09-09T07:19:59.549Z,388.13
2018-09-09T07:20:59.626Z,472.50
2018-09-09T07:21:59.556Z,579.38
2018-09-09T07:22:59.540Z,450.00
2018-09-09T07:23:59.548Z,416.25
2018-09-09T07:24:59.571Z,444.38
2018-09-09T07:25:59.569Z,427.50
2018-09-09T07:26:59.572Z,416.25
2018-09-09T07:27:59.562Z,388.13
2018-09-09T07:28:59.590Z,376.88
2018-09-09T07:29:59.584Z,376.88
2018-09-09T07:30:59.648Z,405.00
2018-09-09T07:31:59.616Z,371.25
2018-09-09T07:32:59.624Z,376.88
2018-09-09T07:33:59.604Z,376.88
2018-09-09T07:34:59.607Z,388.13
2018-09-09T07:35:59.602Z,371.25
2018-09-09T07:36:59.632Z,354.38
2018-09-09T07:37:59.597Z,337.50
2018-09-09T07:38:59.629Z,309.38
2018-09-09T07:39:59.647Z,275.63
2018-09-09T07:40:59.613Z,253.13
2018-09-09T07:41:59.618Z,236.25
2018-09-09T07:42:59.640Z,225.00
2018-09-09T07:43:59.665Z,213.75
2018-09-09T07:44:59.668Z,208.13
2018-09-09T07:45:59.638Z,196.88
2018-09-09T07:46:59.643Z,185.63
2018-09-09T07:47:59.698Z,180.00
2018-09-09T07:48:59.646Z,174.38
2018-09-09T07:49:59.674Z,180.00
2018-09-09T07:50:59.657Z,185.63
2018-09-09T07:51:59.657Z,185.63
2018-09-09T07:52:59.756Z,174.38
2018-09-09T07:53:59.704Z,157.50
2018-09-09T07:54:59.771Z,151.88
2018-09-09T07:55:59.675Z,146.25
2018-09-09T07:56:59.690Z,140.63
2018-09-09T07:57:59.695Z,135.00
2018-09-09T07:58:59.720Z,129.38
2018-09-09T07:59:59.702Z,129.38
2018-09-09T08:00:59.685Z,123.75
2018-09-09T08:01:59.708Z,118.13
2018-09-09T08:02:59.704Z,118.13
2018-09-09T08:03:59.709Z,118.13
2018-09-09T08:04:59.722Z,118.13
2018-09-09T08:05:59.723Z,118.13
2018-09-09T08:06:59.736Z,118.13
2018-09-09T08:07:59.770Z,123.75
2018-09-09T08:08:59.741Z,140.63
2018-09-09T08:09:59.717Z,151.88
2018-09-09T08:10:59.766Z,174.38
2018-09-09T08:11:59.908Z,208.13
2018-09-09T08:12:59.784Z,236.25
2018-09-09T08:13:59.778Z,270.00
2018-09-09T08:14:59.791Z,292.50
2018-09-09T08:15:59.738Z,286.88
2018-09-09T08:16:59.730Z,253.13
2018-09-09T08:17:59.743Z,236.25
2018-09-09T08:18:59.767Z,230.63
2018-09-09T08:19:59.754Z,219.38
2018-09-09T08:20:59.751Z,213.75
2018-09-09T08:21:59.777Z,202.50
2018-09-09T08:22:59.760Z,213.75
2018-09-09T08:23:59.775Z,225.00
2018-09-09T08:24:59.773Z,236.25
2018-09-09T08:25:59.808Z,213.75
2018-09-09T08:26:59.801Z,196.88
2018-09-09T08:27:59.796Z,202.50
2018-09-09T08:28:59.800Z,208.13
2018-09-09T08:29:59.865Z,264.38
2018-09-09T08:30:59.826Z,309.38
2018-09-09T08:31:59.817Z,320.63
2018-09-09T08:32:59.803Z,315.00
2018-09-09T08:33:59.869Z,303.75
2018-09-09T08:34:59.806Z,303.75
2018-09-09T08:35:59.797Z,343.13
2018-09-09T08:36:59.790Z,393.75
2018-09-09T08:37:59.890Z,450.00
2018-09-09T08:38:59.822Z,506.25
2018-09-09T08:39:59.831Z,528.75
2018-09-09T08:40:59.814Z,534.38
2018-09-09T08:41:59.858Z,540.00
2018-09-09T08:42:59.876Z,579.38
2018-09-09T08:43:59.821Z,613.13
2018-09-09T08:44:59.829Z,596.25
2018-09-09T08:45:59.871Z,573.75
2018-09-09T08:46:59.865Z,618.75
2018-09-09T08:47:59.877Z,562.50
2018-09-09T08:48:59.855Z,613.13
2018-09-09T08:49:59.839Z,652.50
2018-09-09T08:50:59.859Z,630.00
2018-09-09T08:51:59.921Z,663.75
2018-09-09T08:52:59.873Z,652.50
2018-09-09T08:53:59.896Z,691.88
2018-09-09T08:54:59.876Z,703.13
2018-09-09T08:55:59.910Z,630.00
2018-09-09T08:56:59.887Z,607.50
2018-09-09T08:57:59.933Z,731.25
2018-09-09T08:58:59.912Z,793.13
2018-09-09T08:59:59.929Z,759.38
2018-09-09T09:00:59.935Z,652.50
2018-09-09T09:01:59.934Z,652.50
2018-09-09T09:02:59.925Z,686.25
2018-09-09T09:03:59.939Z,866.25
2018-09-09T09:04:59.979Z,720.00
2018-09-09T09:05:59.956Z,967.50
2018-09-09T09:07:00.012Z,821.25
2018-09-09T09:08:00.493Z,973.13
2018-09-09T09:08:59.929Z,663.75
2018-09-09T09:10:00.888Z,691.88
2018-09-09T09:10:59.952Z,793.13
2018-09-09T09:11:59.961Z,793.13
2018-09-09T09:12:59.952Z,759.38
2018-09-09T09:13:59.966Z,843.75
2018-09-09T09:14:59.978Z,736.88
2018-09-09T09:15:59.986Z,697.50
2018-09-09T09:17:00.071Z,680.63
2018-09-09T09:18:00.021Z,770.63
2018-09-09T09:19:00.009Z,759.38
2018-09-09T09:20:00.046Z,748.13
2018-09-09T09:21:00.008Z,793.13
2018-09-09T09:22:00.057Z,832.50
2018-09-09T09:23:00.026Z,1625.63
2018-09-09T09:24:00.045Z,843.75
2018-09-09T09:25:00.047Z,1091.25
2018-09-09T09:26:00.065Z,2086.88
2018-09-09T09:27:00.054Z,1333.13
2018-09-09T09:28:00.095Z,1974.38
2018-09-09T09:29:00.160Z,2193.75
2018-09-09T09:30:00.078Z,1968.75
2018-09-09T09:31:00.102Z,1282.50
2018-09-09T09:32:00.065Z,3369.38
2018-09-09T09:33:00.131Z,1462.50
2018-09-09T09:34:00.096Z,1164.38
2018-09-09T09:35:00.190Z,1181.25
2018-09-09T09:36:00.270Z,1507.50
2018-09-09T09:37:00.117Z,933.75
2018-09-09T09:38:00.136Z,1980.00
2018-09-09T09:39:00.148Z,1237.50
2018-09-09T09:40:00.168Z,1305.00
2018-09-09T09:41:00.149Z,759.38
2018-09-09T09:42:00.198Z,894.38
2018-09-09T09:43:00.168Z,731.25
2018-09-09T09:44:00.204Z,928.13
2018-09-09T09:45:00.274Z,916.88
2018-09-09T09:46:00.223Z,849.38
2018-09-09T09:47:00.266Z,916.88
2018-09-09T09:48:00.214Z,961.88
2018-09-09T09:49:00.230Z,978.75
2018-09-09T09:50:00.235Z,939.38
2018-09-09T09:51:00.918Z,849.38
2018-09-09T09:52:00.263Z,753.75
2018-09-09T09:53:00.246Z,748.13
2018-09-09T09:54:00.317Z,697.50
2018-09-09T09:55:00.378Z,618.75
2018-09-09T09:56:00.316Z,590.63
2018-09-09T09:57:00.278Z,517.50
2018-09-09T09:58:00.283Z,579.38
2018-09-09T09:59:00.288Z,663.75
2018-09-09T10:00:00.327Z,736.88
2018-09-09T10:01:00.314Z,888.75
2018-09-09T10:02:00.302Z,624.38
2018-09-09T10:03:00.342Z,556.88
2018-09-09T10:04:00.439Z,528.75
2018-09-09T10:05:00.345Z,528.75
2018-09-09T10:06:00.359Z,641.25
2018-09-09T10:07:00.376Z,725.63
2018-09-09T10:08:00.395Z,545.63
2018-09-09T10:09:00.400Z,590.63
2018-09-09T10:10:00.382Z,703.13
2018-09-09T10:11:00.431Z,770.63
2018-09-09T10:12:00.394Z,562.50
2018-09-09T10:13:00.435Z,540.00
2018-09-09T10:14:00.533Z,680.63
2018-09-09T10:15:00.483Z,804.38
2018-09-09T10:16:00.927Z,855.00
2018-09-09T10:17:00.432Z,804.38
2018-09-09T10:18:00.419Z,776.25
2018-09-09T10:19:00.464Z,691.88
2018-09-09T10:20:00.452Z,646.88
2018-09-09T10:21:00.462Z,720.00
2018-09-09T10:22:00.465Z,894.38
2018-09-09T10:23:00.462Z,1175.63
2018-09-09T10:24:00.481Z,1068.75
2018-09-09T10:25:00.484Z,961.88
2018-09-09T10:26:00.514Z,787.50
2018-09-09T10:27:00.487Z,804.38
2018-09-09T10:28:00.486Z,731.25
2018-09-09T10:29:02.006Z,736.88
2018-09-09T10:30:00.588Z,680.63
2018-09-09T10:31:00.508Z,1029.38
2018-09-09T10:32:00.534Z,1170.00
2018-09-09T10:33:00.558Z,1563.75
2018-09-09T10:34:00.562Z,1867.50
2018-09-09T10:35:00.556Z,1794.38
2018-09-09T10:36:00.551Z,2244.38
2018-09-09T10:37:00.556Z,1462.50
2018-09-09T10:38:00.585Z,1766.25
2018-09-09T10:39:00.608Z,2503.13
2018-09-09T10:40:00.598Z,2531.25
2018-09-09T10:41:00.640Z,2058.75
2018-09-09T10:42:00.652Z,1980.00
2018-09-09T10:43:00.615Z,1586.25
2018-09-09T10:44:00.623Z,1552.50
2018-09-09T10:45:00.666Z,1845.00
2018-09-09T10:46:00.697Z,1884.38
2018-09-09T10:47:00.700Z,1878.75
2018-09-09T10:48:00.702Z,2075.63
2018-09-09T10:49:00.672Z,1721.25
2018-09-09T10:50:00.703Z,2430.00
2018-09-09T10:51:00.697Z,1873.13
2018-09-09T10:52:01.453Z,2272.50
2018-09-09T10:53:00.776Z,1558.13
2018-09-09T10:54:00.741Z,1800.00
2018-09-09T10:55:00.818Z,1231.88
2018-09-09T10:56:00.821Z,1198.13
2018-09-09T10:57:00.776Z,1445.63
2018-09-09T10:58:00.799Z,1282.50
2018-09-09T10:59:00.850Z,1108.13
2018-09-09T11:00:00.815Z,956.25
2018-09-09T11:01:00.792Z,1215.00
2018-09-09T11:02:00.795Z,1074.38
2018-09-09T11:03:00.849Z,843.75
2018-09-09T11:04:00.827Z,607.50
2018-09-09T11:05:00.882Z,736.88
2018-09-09T11:06:00.886Z,900.00
2018-09-09T11:07:00.900Z,731.25
2018-09-09T11:08:00.874Z,776.25
2018-09-09T11:09:00.866Z,967.50
2018-09-09T11:10:00.943Z,1372.50
2018-09-09T11:11:00.902Z,1327.50
2018-09-09T11:12:00.952Z,1271.25
2018-09-09T11:13:01.052Z,967.50
2018-09-09T11:14:00.941Z,939.38
2018-09-09T11:15:01.008Z,911.25
2018-09-09T11:16:00.996Z,1136.25
2018-09-09T11:17:01.064Z,1243.13
2018-09-09T11:18:01.020Z,646.88
2018-09-09T11:19:00.990Z,658.13
2018-09-09T11:20:01.013Z,579.38
2018-09-09T11:21:01.036Z,461.25
2018-09-09T11:22:01.056Z,433.13
2018-09-09T11:23:01.041Z,410.63
2018-09-09T11:24:01.044Z,410.63
2018-09-09T11:25:01.106Z,444.38
2018-09-09T11:26:01.044Z,450.00
2018-09-09T11:27:01.085Z,489.38
2018-09-09T11:28:01.079Z,506.25
2018-09-09T11:29:01.098Z,523.13
2018-09-09T11:30:01.197Z,528.75
2018-09-09T11:31:01.118Z,511.88
2018-09-09T11:32:01.144Z,511.88
2018-09-09T11:33:01.120Z,517.50
2018-09-09T11:34:01.104Z,500.63
2018-09-09T11:35:01.141Z,489.38
2018-09-09T11:36:01.146Z,478.13
2018-09-09T11:37:01.135Z,450.00
2018-09-09T11:38:01.147Z,421.88
2018-09-09T11:39:01.159Z,405.00
2018-09-09T11:40:01.165Z,388.13
2018-09-09T11:41:01.158Z,365.63
2018-09-09T11:42:01.189Z,354.38
2018-09-09T11:43:01.217Z,365.63
2018-09-09T11:44:01.246Z,365.63
2018-09-09T11:45:01.196Z,365.63
2018-09-09T11:46:01.290Z,371.25
2018-09-09T11:47:01.203Z,376.88
2018-09-09T11:48:01.214Z,382.50
2018-09-09T11:49:01.284Z,393.75
2018-09-09T11:50:01.285Z,399.38
2018-09-09T11:51:01.286Z,416.25
2018-09-09T11:52:01.305Z,410.63
2018-09-09T11:53:01.328Z,416.25
2018-09-09T11:54:01.258Z,427.50
2018-09-09T11:55:01.305Z,416.25
2018-09-09T11:56:01.267Z,388.13
2018-09-09T11:57:01.274Z,360.00
2018-09-09T11:58:01.275Z,331.88
2018-09-09T11:59:01.276Z,303.75
2018-09-09T12:00:01.332Z,270.00
2018-09-09T12:01:01.345Z,247.50
2018-09-09T12:02:01.380Z,219.38
2018-09-09T12:03:01.320Z,202.50
2018-09-09T12:04:01.336Z,185.63
2018-09-09T12:05:04.154Z,168.75
2018-09-09T12:06:01.345Z,163.13
2018-09-09T12:07:01.337Z,168.75
2018-09-09T12:08:01.343Z,157.50
2018-09-09T12:09:01.376Z,146.25
2018-09-09T12:10:01.437Z,140.63
2018-09-09T12:11:01.381Z,135.00
2018-09-09T12:12:01.359Z,135.00
2018-09-09T12:13:01.370Z,129.38
2018-09-09T12:14:01.418Z,129.38
2018-09-09T12:15:01.381Z,129.38
2018-09-09T12:16:01.440Z,129.38
2018-09-09T12:17:02.086Z,129.38
2018-09-09T12:18:01.399Z,129.38
2018-09-09T12:19:01.399Z,123.75
2018-09-09T12:20:02.015Z,123.75
2018-09-09T12:21:01.418Z,118.13
2018-09-09T12:22:01.461Z,118.13
2018-09-09T12:23:01.467Z,118.13
2018-09-09T12:24:01.471Z,112.50
2018-09-09T12:25:01.517Z,112.50
2018-09-09T12:26:01.454Z,112.50
2018-09-09T12:27:01.447Z,112.50
2018-09-09T12:28:01.494Z,112.50
2018-09-09T12:29:01.520Z,112.50
2018-09-09T12:30:01.523Z,112.50
2018-09-09T12:31:01.516Z,106.88
2018-09-09T12:32:01.498Z,106.88
2018-09-09T12:33:01.475Z,106.88
2018-09-09T12:34:01.481Z,106.88
2018-09-09T12:35:01.511Z,112.50
2018-09-09T12:36:01.630Z,112.50
2018-09-09T12:37:01.535Z,112.50
2018-09-09T12:38:01.528Z,112.50
2018-09-09T12:39:01.528Z,106.88
2018-09-09T12:40:01.545Z,106.88
2018-09-09T12:41:01.517Z,106.88
2018-09-09T12:42:01.533Z,106.88
2018-09-09T12:43:01.529Z,101.25
2018-09-09T12:44:01.577Z,101.25
2018-09-09T12:45:01.540Z,101.25
2018-09-09T12:46:01.600Z,101.25
2018-09-09T12:47:01.658Z,101.25
2018-09-09T12:48:01.688Z,101.25
2018-09-09T12:49:01.562Z,95.63